Time;durP1;ratioP1;P1;durP2;ratioP2;P2;SDS_P1;SDS_P2;PMS_P1;PMS_P2;Temp;Humidity;BMP_temperature;BMP_pressure;BME280_temperature;BME280_humidity;BME280_pressure;Samples;Min_cycle;Max_cycle;Signal;HPM_P1;HPM_P2
2022/11/16 00:00:43;;;;;;;;;;;11.50;99.90;;;;;;5067249;28;19928;-74
2022/11/16 00:03:09;;;;;;;;;;;11.50;99.90;;;;;;5058319;28;19912;-74
2022/11/16 00:05:35;;;;;;;;;;;11.50;99.90;;;;;;5062660;28;19924;-74
2022/11/16 00:08:00;;;;;;;;;;;11.50;99.90;;;;;;5060891;28;20771;-75
2022/11/16 00:10:26;;;;;;;;;;;11.50;99.90;;;;;;5065055;28;19916;-74
2022/11/16 00:12:51;;;;;;;;;;;11.50;99.90;;;;;;5067133;28;19924;-74
2022/11/16 00:15:17;;;;;;;;;;;11.50;99.90;;;;;;5067143;28;19909;-74
2022/11/16 00:17:42;;;;;;;;;;;11.50;99.90;;;;;;5067038;28;19924;-74
2022/11/16 00:20:08;;;;;;;;;;;11.50;99.90;;;;;;5070777;28;20478;-74
2022/11/16 00:22:33;;;;;;;;;;;11.50;99.90;;;;;;5068370;28;20401;-75
2022/11/16 00:24:59;;;;;;;;;;;11.50;99.90;;;;;;5078454;28;20005;-75
2022/11/16 00:27:24;;;;;;;;;;;11.60;99.90;;;;;;5070478;28;19917;-75
2022/11/16 00:29:50;;;;;;;;;;;11.60;99.90;;;;;;5071340;28;19925;-74
2022/11/16 00:32:16;;;;;;;;;;;11.60;99.90;;;;;;5071004;28;20388;-75
2022/11/16 00:34:41;;;;;;;;;;;11.50;99.90;;;;;;5070198;28;19939;-75
2022/11/16 00:37:07;;;;;;;;;;;11.60;99.90;;;;;;5095038;28;20015;-74
2022/11/16 00:39:33;;;;;;;;;;;11.50;99.90;;;;;;5066633;28;19982;-75
2022/11/16 00:41:58;;;;;;;;;;;11.60;99.90;;;;;;5069536;28;20023;-75
2022/11/16 00:44:24;;;;;;;;;;;11.60;99.90;;;;;;5071036;28;20019;-75
2022/11/16 00:46:49;;;;;;;;;;;11.60;99.90;;;;;;5058129;28;19917;-75
2022/11/16 00:49:15;;;;;;;;;;;11.50;99.90;;;;;;5070554;28;19912;-75
2022/11/16 00:51:40;;;;;;;;;;;11.60;99.90;;;;;;5070208;28;20043;-75
2022/11/16 00:54:07;;;;;;;;;;;11.40;99.90;;;;;;5070329;28;19912;-75
2022/11/16 00:56:33;;;;;;;;;;;11.40;99.90;;;;;;5077757;28;19920;-75
2022/11/16 00:58:58;;;;;;;;;;;11.40;99.90;;;;;;5074978;28;19974;-75
2022/11/16 01:01:24;;;;;;;;;;;11.40;99.90;;;;;;5070411;28;19923;-75
2022/11/16 01:03:50;;;;;;;;;;;11.40;99.90;;;;;;5069810;28;19916;-75
2022/11/16 01:06:15;;;;;;;;;;;11.40;99.90;;;;;;5058641;28;19973;-75
2022/11/16 01:08:41;;;;;;;;;;;11.40;99.90;;;;;;5065018;28;20024;-75
2022/11/16 01:13:52;;;;;;;;;;;11.40;99.90;;;;;;5069747;28;19922;-75
2022/11/16 01:16:19;;;;;;;;;;;11.30;99.90;;;;;;5069926;28;19908;-75
2022/11/16 01:18:48;;;;;;;;;;;11.40;99.90;;;;;;5069409;28;19928;-76
2022/11/16 01:21:14;;;;;;;;;;;11.50;99.90;;;;;;5069733;28;19916;-75
2022/11/16 01:23:40;;;;;;;;;;;11.40;99.90;;;;;;5069587;28;19917;-75
2022/11/16 01:26:05;;;;;;;;;;;11.30;99.90;;;;;;5069964;28;19916;-75
2022/11/16 01:28:31;;;;;;;;;;;11.40;99.90;;;;;;5067983;28;19916;-76
2022/11/16 01:30:57;;;;;;;;;;;11.30;99.90;;;;;;5068647;28;20384;-76
2022/11/16 01:33:22;;;;;;;;;;;11.40;99.90;;;;;;5068321;28;19913;-75
2022/11/16 01:35:48;;;;;;;;;;;11.40;99.90;;;;;;5066688;28;19920;-76
2022/11/16 01:38:13;;;;;;;;;;;11.40;99.90;;;;;;5060262;28;19921;-75
2022/11/16 01:40:39;;;;;;;;;;;11.30;99.90;;;;;;5054878;28;19927;-75
2022/11/16 01:43:31;;;;;;;;;;;11.10;99.90;;;;;;5059471;28;19918;-75
2022/11/16 01:45:56;;;;;;;;;;;11.10;99.90;;;;;;5057322;28;19921;-75
2022/11/16 01:48:24;;;;;;;;;;;11.20;99.90;;;;;;5068361;28;19954;-75
2022/11/16 01:50:50;;;;;;;;;;;11.10;99.90;;;;;;5065228;28;19939;-74
2022/11/16 01:53:16;;;;;;;;;;;11.20;99.90;;;;;;5069082;28;19916;-75
2022/11/16 01:55:43;;;;;;;;;;;11.30;99.90;;;;;;5068484;28;19947;-75
2022/11/16 01:58:12;;;;;;;;;;;11.30;99.90;;;;;;5068753;28;19920;-76
2022/11/16 02:00:38;;;;;;;;;;;11.30;99.90;;;;;;5069568;28;19925;-75
2022/11/16 02:03:04;;;;;;;;;;;11.30;99.90;;;;;;5068806;28;19916;-75
2022/11/16 02:05:32;;;;;;;;;;;11.20;99.90;;;;;;5068559;28;19928;-75
2022/11/16 02:11:21;;;;;;;;;;;11.10;99.90;;;;;;5061348;28;19923;-74
2022/11/16 02:14:05;;;;;;;;;;;11.00;99.90;;;;;;5065462;28;19961;-75
2022/11/16 02:16:53;;;;;;;;;;;11.00;99.90;;;;;;5061123;28;19916;-75
2022/11/16 02:19:37;;;;;;;;;;;11.10;99.90;;;;;;5052877;28;19988;-75
2022/11/16 02:22:09;;;;;;;;;;;11.10;99.90;;;;;;5068776;28;20015;-75
2022/11/16 02:24:40;;;;;;;;;;;11.20;99.90;;;;;;5068753;28;20731;-75
2022/11/16 02:27:18;;;;;;;;;;;11.20;99.90;;;;;;5069955;28;20014;-74
2022/11/16 02:29:50;;;;;;;;;;;11.30;99.90;;;;;;5068082;28;20011;-75
2022/11/16 02:32:54;;;;;;;;;;;11.20;99.90;;;;;;5066998;28;19924;-75
2022/11/16 02:35:19;;;;;;;;;;;11.20;99.90;;;;;;4997010;28;19918;-74
2022/11/16 02:37:56;;;;;;;;;;;11.10;99.90;;;;;;5001400;28;19924;-74
2022/11/16 02:40:25;;;;;;;;;;;11.10;99.90;;;;;;5029223;28;19913;-74
2022/11/16 02:42:57;;;;;;;;;;;11.20;99.90;;;;;;5059288;28;19916;-74
2022/11/16 02:45:24;;;;;;;;;;;11.30;99.90;;;;;;5067820;28;19956;-74
2022/11/16 02:47:49;;;;;;;;;;;11.20;99.90;;;;;;5067436;28;20565;-74
2022/11/16 02:50:20;;;;;;;;;;;11.20;99.90;;;;;;5068240;28;19920;-74
2022/11/16 02:52:46;;;;;;;;;;;11.10;99.90;;;;;;5067785;28;19913;-74
2022/11/16 02:55:12;;;;;;;;;;;11.00;99.90;;;;;;5067825;28;20018;-74
2022/11/16 02:57:39;;;;;;;;;;;11.00;99.90;;;;;;5067387;28;19912;-74
2022/11/16 03:00:06;;;;;;;;;;;10.90;99.90;;;;;;5060608;28;19975;-74
2022/11/16 03:02:41;;;;;;;;;;;10.90;99.90;;;;;;5063471;28;19988;-75
2022/11/16 03:05:16;;;;;;;;;;;10.70;99.90;;;;;;5067983;28;19935;-75
2022/11/16 03:08:01;;;;;;;;;;;10.50;99.90;;;;;;5066701;28;19959;-74
2022/11/16 03:13:30;;;;;;;;;;;10.50;99.90;;;;;;5014499;28;19940;-74
2022/11/16 03:15:55;;;;;;;;;;;10.50;99.90;;;;;;5051983;28;19916;-74
2022/11/16 03:18:22;;;;;;;;;;;10.60;99.90;;;;;;5066762;28;19939;-74
2022/11/16 03:20:50;;;;;;;;;;;10.70;99.90;;;;;;5066290;28;19916;-74
2022/11/16 03:23:16;;;;;;;;;;;10.70;99.90;;;;;;5067006;28;19923;-74
2022/11/16 03:25:51;;;;;;;;;;;10.90;99.90;;;;;;5060602;28;19916;-74
2022/11/16 03:28:19;;;;;;;;;;;10.90;99.90;;;;;;5067206;28;19989;-74
2022/11/16 03:30:49;;;;;;;;;;;11.00;99.90;;;;;;5067585;28;19963;-74
2022/11/16 03:33:21;;;;;;;;;;;11.00;99.90;;;;;;5061005;28;20378;-75
2022/11/16 03:35:46;;;;;;;;;;;11.00;99.90;;;;;;5092840;28;19966;-75
2022/11/16 03:38:13;;;;;;;;;;;10.90;99.90;;;;;;5065793;28;19962;-74
2022/11/16 03:40:40;;;;;;;;;;;11.00;99.90;;;;;;5067029;28;20370;-75
2022/11/16 03:43:06;;;;;;;;;;;10.90;99.90;;;;;;5067359;28;20095;-74
2022/11/16 03:45:31;;;;;;;;;;;11.00;99.90;;;;;;5067812;28;20010;-74
2022/11/16 03:47:57;;;;;;;;;;;11.00;99.90;;;;;;5067295;28;20031;-75
2022/11/16 03:50:22;;;;;;;;;;;11.10;99.90;;;;;;5067499;28;19942;-74
2022/11/16 03:52:48;;;;;;;;;;;11.10;99.90;;;;;;5067611;28;19912;-74
2022/11/16 03:55:14;;;;;;;;;;;11.10;99.90;;;;;;5070996;28;19916;-74
2022/11/16 03:57:39;;;;;;;;;;;11.20;99.90;;;;;;5060936;28;19920;-75
2022/11/16 04:00:05;;;;;;;;;;;11.20;99.90;;;;;;5068868;28;19955;-74
2022/11/16 04:02:31;;;;;;;;;;;11.20;99.90;;;;;;5058416;28;19916;-74
2022/11/16 04:24:15;;;;;;;;;;;11.00;99.90;;;;;;5070818;28;20493;-74
2022/11/16 04:29:27;;;;;;;;;;;11.10;99.90;;;;;;5070872;28;20730;-74
2022/11/16 04:40:05;;;;;;;;;;;11.10;99.90;;;;;;5069966;28;19923;-75
2022/11/16 04:42:31;;;;;;;;;;;11.10;99.90;;;;;;5066040;28;19916;-73
2022/11/16 04:47:41;;;;;;;;;;;11.20;99.90;;;;;;5068838;28;19942;-74
2022/11/16 04:50:06;;;;;;;;;;;11.00;99.90;;;;;;5070590;28;19917;-75
2022/11/16 04:52:32;;;;;;;;;;;11.10;99.90;;;;;;5071920;28;19908;-74
2022/11/16 04:54:57;;;;;;;;;;;11.00;99.90;;;;;;5070159;28;20737;-75
2022/11/16 04:57:23;;;;;;;;;;;11.10;99.90;;;;;;5064433;28;20740;-74
2022/11/16 04:59:48;;;;;;;;;;;11.10;99.90;;;;;;5069481;28;20667;-75
2022/11/16 05:02:14;;;;;;;;;;;11.00;99.90;;;;;;5070399;28;19916;-74
2022/11/16 05:04:41;;;;;;;;;;;10.90;99.90;;;;;;5069029;28;19916;-75
2022/11/16 05:07:09;;;;;;;;;;;10.80;99.90;;;;;;5070061;28;20011;-75
2022/11/16 05:09:45;;;;;;;;;;;10.80;99.90;;;;;;5069761;28;19917;-74
2022/11/16 05:12:13;;;;;;;;;;;10.80;99.90;;;;;;5069993;28;20011;-75
2022/11/16 05:14:39;;;;;;;;;;;10.80;99.90;;;;;;5069336;28;19947;-74
2022/11/16 05:17:05;;;;;;;;;;;10.80;99.90;;;;;;5070140;28;19920;-75
2022/11/16 05:22:15;;;;;;;;;;;10.90;99.90;;;;;;5069869;28;19927;-74
2022/11/16 05:24:40;;;;;;;;;;;10.90;99.90;;;;;;5068310;28;19916;-74
2022/11/16 05:27:08;;;;;;;;;;;10.80;99.90;;;;;;5069815;28;19970;-75
2022/11/16 05:29:34;;;;;;;;;;;10.70;99.90;;;;;;5069527;28;19916;-74
2022/11/16 05:32:00;;;;;;;;;;;10.80;99.90;;;;;;5069011;28;20524;-74
2022/11/16 05:34:26;;;;;;;;;;;10.80;99.90;;;;;;5069411;28;19916;-75
2022/11/16 05:36:52;;;;;;;;;;;10.70;99.90;;;;;;5061559;28;19920;-74
2022/11/16 05:39:18;;;;;;;;;;;10.70;99.90;;;;;;5067667;28;19916;-75
2022/11/16 05:41:44;;;;;;;;;;;10.80;99.90;;;;;;5067164;28;20404;-75
2022/11/16 05:44:10;;;;;;;;;;;10.70;99.90;;;;;;5090209;28;20709;-79
2022/11/16 05:46:35;;;;;;;;;;;10.90;99.90;;;;;;5062394;28;19927;-78
2022/11/16 05:49:01;;;;;;;;;;;11.00;99.90;;;;;;5059080;28;19912;-79
2022/11/16 05:51:26;;;;;;;;;;;11.00;99.90;;;;;;5068801;28;20709;-79
2022/11/16 05:53:52;;;;;;;;;;;11.10;99.90;;;;;;5069080;28;20454;-78
2022/11/16 05:56:17;;;;;;;;;;;11.10;99.90;;;;;;5067206;28;19973;-79
2022/11/16 05:58:45;;;;;;;;;;;11.00;99.90;;;;;;5068843;28;19927;-79
2022/11/16 06:01:11;;;;;;;;;;;11.10;99.90;;;;;;5068605;28;19916;-77
2022/11/16 06:03:37;;;;;;;;;;;11.10;99.90;;;;;;5069244;28;19924;-78
2022/11/16 06:06:03;;;;;;;;;;;11.10;99.90;;;;;;5075068;28;19928;-80
2022/11/16 06:08:29;;;;;;;;;;;11.00;99.90;;;;;;5066186;28;19917;-79
2022/11/16 06:10:54;;;;;;;;;;;11.10;99.90;;;;;;5078535;28;19923;-78
2022/11/16 06:13:20;;;;;;;;;;;11.10;99.90;;;;;;5065280;28;19916;-78
2022/11/16 06:15:45;;;;;;;;;;;11.10;99.90;;;;;;5060287;28;20019;-77
2022/11/16 06:18:11;;;;;;;;;;;11.00;99.90;;;;;;5067525;28;19963;-79
2022/11/16 06:20:38;;;;;;;;;;;11.00;99.90;;;;;;5063504;28;19912;-78
2022/11/16 06:23:04;;;;;;;;;;;11.00;99.90;;;;;;5067842;28;19912;-76
2022/11/16 06:25:30;;;;;;;;;;;11.00;99.90;;;;;;5068075;28;19966;-76
2022/11/16 06:27:56;;;;;;;;;;;11.10;99.90;;;;;;5060750;28;19923;-74
2022/11/16 06:30:21;;;;;;;;;;;11.10;99.90;;;;;;5060558;28;19928;-75
2022/11/16 06:32:47;;;;;;;;;;;11.10;99.90;;;;;;5067117;28;19994;-75
2022/11/16 06:35:12;;;;;;;;;;;11.00;99.90;;;;;;5067553;28;19924;-75
2022/11/16 06:37:38;;;;;;;;;;;11.00;99.90;;;;;;5058157;28;19970;-74
2022/11/16 06:40:04;;;;;;;;;;;10.90;99.90;;;;;;5066329;28;19930;-75
2022/11/16 06:42:29;;;;;;;;;;;10.90;99.90;;;;;;5058150;28;20688;-75
2022/11/16 06:44:55;;;;;;;;;;;10.90;99.90;;;;;;5066089;28;20316;-75
2022/11/16 06:47:20;;;;;;;;;;;11.00;99.90;;;;;;5067147;28;19917;-76
2022/11/16 06:49:46;;;;;;;;;;;11.00;99.90;;;;;;5067779;28;20024;-75
2022/11/16 06:52:12;;;;;;;;;;;10.90;99.90;;;;;;5067611;28;19947;-75
2022/11/16 06:54:37;;;;;;;;;;;11.00;99.90;;;;;;5066581;28;19916;-74
2022/11/16 06:57:03;;;;;;;;;;;10.80;99.90;;;;;;5067157;28;19920;-75
2022/11/16 06:59:28;;;;;;;;;;;10.80;99.90;;;;;;5066948;28;19916;-75
2022/11/16 07:01:54;;;;;;;;;;;10.80;99.90;;;;;;5066524;28;19932;-75
2022/11/16 07:04:19;;;;;;;;;;;10.80;99.90;;;;;;5055607;28;19931;-75
2022/11/16 07:06:45;;;;;;;;;;;10.80;99.90;;;;;;5047254;28;19928;-75
2022/11/16 07:09:12;;;;;;;;;;;10.80;99.90;;;;;;5055044;28;20654;-75
2022/11/16 07:11:38;;;;;;;;;;;10.90;99.90;;;;;;5093828;28;19912;-75
2022/11/16 07:14:03;;;;;;;;;;;11.00;99.90;;;;;;5050310;28;19924;-75
2022/11/16 07:16:29;;;;;;;;;;;11.10;99.90;;;;;;5083014;28;19923;-74
2022/11/16 07:18:56;;;;;;;;;;;11.00;99.90;;;;;;5068392;28;20005;-75
2022/11/16 07:21:22;;;;;;;;;;;11.10;99.90;;;;;;5061015;28;19948;-75
2022/11/16 07:23:47;;;;;;;;;;;11.10;99.90;;;;;;5073463;28;20019;-75
2022/11/16 07:26:13;;;;;;;;;;;11.20;99.90;;;;;;5071037;28;19932;-74
2022/11/16 07:28:39;;;;;;;;;;;11.20;99.90;;;;;;5061998;28;20359;-75
2022/11/16 07:31:08;;;;;;;;;;;11.10;99.90;;;;;;5067992;28;19916;-75
2022/11/16 07:33:34;;;;;;;;;;;11.10;99.90;;;;;;5066423;28;19913;-76
2022/11/16 07:36:01;;;;;;;;;;;11.20;99.90;;;;;;5056929;28;19923;-76
2022/11/16 07:38:26;;;;;;;;;;;11.10;99.90;;;;;;5055644;28;19921;-76
2022/11/16 07:40:52;;;;;;;;;;;11.00;99.90;;;;;;5068444;28;20018;-73
2022/11/16 07:43:17;;;;;;;;;;;11.10;99.90;;;;;;5046794;28;19952;-75
2022/11/16 07:45:43;;;;;;;;;;;11.20;99.90;;;;;;5059869;28;20091;-76
2022/11/16 07:48:08;;;;;;;;;;;11.10;99.90;;;;;;5057674;28;19912;-75
2022/11/16 07:50:34;;;;;;;;;;;11.20;99.90;;;;;;5065956;28;20325;-75
2022/11/16 07:53:00;;;;;;;;;;;11.30;99.90;;;;;;5065741;28;20479;-75
2022/11/16 07:55:30;;;;;;;;;;;11.40;99.90;;;;;;5065344;28;19912;-75
2022/11/16 07:57:59;;;;;;;;;;;11.40;99.90;;;;;;5066085;28;19916;-75
2022/11/16 08:00:24;;;;;;;;;;;11.40;99.90;;;;;;5066983;28;19912;-75
2022/11/16 08:02:50;;;;;;;;;;;11.40;99.90;;;;;;5067007;28;19986;-75
2022/11/16 08:05:15;;;;;;;;;;;11.50;99.90;;;;;;5067244;28;19912;-75
2022/11/16 08:07:41;;;;;;;;;;;11.50;99.90;;;;;;5062205;28;19939;-75
2022/11/16 08:10:06;;;;;;;;;;;11.50;99.90;;;;;;5061915;28;20427;-75
2022/11/16 08:12:32;;;;;;;;;;;11.50;99.90;;;;;;5067145;28;20334;-75
2022/11/16 08:14:57;;;;;;;;;;;11.70;99.90;;;;;;5067237;28;19934;-75
2022/11/16 08:17:23;;;;;;;;;;;11.70;99.90;;;;;;5066675;28;20021;-75
2022/11/16 08:19:49;;;;;;;;;;;11.70;99.90;;;;;;5067243;28;19913;-75
2022/11/16 08:22:14;;;;;;;;;;;11.60;99.90;;;;;;5065620;28;19917;-75
2022/11/16 08:24:40;;;;;;;;;;;11.60;99.90;;;;;;5066639;28;19919;-75
2022/11/16 08:27:05;;;;;;;;;;;11.60;99.90;;;;;;5064947;28;19955;-75
2022/11/16 08:29:31;;;;;;;;;;;11.50;99.90;;;;;;5064237;28;20480;-76
2022/11/16 08:31:57;;;;;;;;;;;11.50;99.90;;;;;;5067010;28;20338;-76
2022/11/16 08:34:23;;;;;;;;;;;11.60;99.90;;;;;;5066889;28;19916;-76
2022/11/16 08:36:48;;;;;;;;;;;11.80;99.90;;;;;;5066317;28;19920;-76
2022/11/16 08:39:14;;;;;;;;;;;12.00;99.90;;;;;;5061790;28;19913;-76
2022/11/16 08:41:41;;;;;;;;;;;12.10;99.90;;;;;;5069642;28;20054;-76
2022/11/16 08:44:06;;;;;;;;;;;12.00;99.90;;;;;;5070069;28;19919;-76
2022/11/16 08:46:32;;;;;;;;;;;11.90;99.90;;;;;;5065459;28;20368;-76
2022/11/16 08:48:57;;;;;;;;;;;12.20;99.90;;;;;;5070073;28;19955;-76
2022/11/16 08:51:23;;;;;;;;;;;12.30;99.90;;;;;;5067475;28;19924;-76
2022/11/16 08:53:53;;;;;;;;;;;12.20;99.90;;;;;;5069847;28;19963;-76
2022/11/16 08:56:19;;;;;;;;;;;12.20;99.90;;;;;;5069904;28;20079;-76
2022/11/16 08:58:47;;;;;;;;;;;12.20;99.90;;;;;;5069058;28;19916;-76
2022/11/16 09:01:17;;;;;;;;;;;12.20;99.90;;;;;;5070398;28;19934;-76
2022/11/16 09:03:43;;;;;;;;;;;12.20;99.90;;;;;;5068782;28;19912;-76
2022/11/16 09:06:09;;;;;;;;;;;12.30;99.90;;;;;;5070115;28;19932;-75
2022/11/16 09:08:35;;;;;;;;;;;12.30;99.90;;;;;;5058097;28;19939;-76
2022/11/16 09:11:05;;;;;;;;;;;12.30;99.90;;;;;;5069281;28;19923;-75
2022/11/16 09:13:30;;;;;;;;;;;12.60;99.90;;;;;;5070328;28;19913;-75
2022/11/16 09:15:57;;;;;;;;;;;13.10;99.90;;;;;;5070230;28;19920;-76
2022/11/16 09:18:22;;;;;;;;;;;12.70;99.90;;;;;;5070188;28;19947;-75
2022/11/16 09:20:48;;;;;;;;;;;12.60;99.90;;;;;;5063335;28;20387;-76
2022/11/16 09:23:14;;;;;;;;;;;12.70;99.90;;;;;;5069815;28;19912;-76
2022/11/16 09:25:40;;;;;;;;;;;13.10;99.90;;;;;;5067950;28;19960;-76
2022/11/16 09:28:07;;;;;;;;;;;13.10;99.90;;;;;;5069575;28;20004;-76
2022/11/16 09:30:33;;;;;;;;;;;13.10;99.90;;;;;;5069830;28;19976;-75
2022/11/16 09:32:59;;;;;;;;;;;13.00;99.90;;;;;;5069791;28;20607;-75
2022/11/16 09:35:24;;;;;;;;;;;13.30;99.90;;;;;;5068460;28;19912;-76
2022/11/16 09:37:50;;;;;;;;;;;13.40;99.90;;;;;;5069359;28;19920;-76
2022/11/16 09:40:15;;;;;;;;;;;13.20;99.90;;;;;;5069048;28;20023;-76
2022/11/16 09:42:47;;;;;;;;;;;13.20;99.90;;;;;;5068429;28;19967;-75
2022/11/16 09:45:13;;;;;;;;;;;13.20;99.90;;;;;;5068406;28;19908;-75
2022/11/16 09:47:49;;;;;;;;;;;13.10;99.90;;;;;;5069343;28;19970;-76
2022/11/16 09:50:28;;;;;;;;;;;13.30;99.90;;;;;;5069707;28;19954;-75
2022/11/16 09:52:55;;;;;;;;;;;13.50;99.90;;;;;;5068976;28;19919;-76
2022/11/16 09:55:26;;;;;;;;;;;13.40;99.90;;;;;;5068680;28;20611;-76
2022/11/16 09:57:54;;;;;;;;;;;13.20;99.90;;;;;;5069069;28;19950;-76
2022/11/16 10:00:24;;;;;;;;;;;13.00;99.90;;;;;;5069117;28;19988;-76
2022/11/16 10:02:59;;;;;;;;;;;13.10;99.90;;;;;;5069261;28;20738;-75
2022/11/16 10:05:28;;;;;;;;;;;13.40;99.90;;;;;;5068091;28;20422;-75
2022/11/16 10:07:59;;;;;;;;;;;13.50;99.90;;;;;;5067944;28;20027;-75
2022/11/16 10:10:37;;;;;;;;;;;14.00;99.90;;;;;;5066548;28;20035;-76
2022/11/16 10:13:09;;;;;;;;;;;14.10;99.90;;;;;;5061768;28;19916;-75
2022/11/16 10:15:50;;;;;;;;;;;14.00;99.90;;;;;;5068873;28;19923;-75
2022/11/16 10:18:34;;;;;;;;;;;14.00;99.90;;;;;;5068552;28;20034;-75
2022/11/16 10:21:12;;;;;;;;;;;14.00;99.90;;;;;;5062113;28;19913;-76
2022/11/16 10:23:37;;;;;;;;;;;14.50;99.90;;;;;;5067318;28;19912;-75
2022/11/16 10:26:03;;;;;;;;;;;14.10;99.90;;;;;;5068406;28;19923;-76
2022/11/16 10:28:31;;;;;;;;;;;14.10;99.90;;;;;;5068205;28;19913;-75
2022/11/16 10:31:01;;;;;;;;;;;14.30;99.90;;;;;;5061981;28;19913;-75
2022/11/16 10:33:34;;;;;;;;;;;14.60;99.90;;;;;;5068327;28;19913;-75
2022/11/16 10:36:00;;;;;;;;;;;14.90;99.90;;;;;;5068519;28;19935;-75
2022/11/16 10:38:32;;;;;;;;;;;14.50;99.90;;;;;;5068082;28;19974;-75
2022/11/16 10:41:03;;;;;;;;;;;14.20;99.90;;;;;;5065829;28;19909;-75
2022/11/16 10:43:32;;;;;;;;;;;13.90;99.90;;;;;;5068437;28;19920;-76
2022/11/16 10:46:11;;;;;;;;;;;13.90;99.90;;;;;;5068500;28;20003;-76
2022/11/16 10:48:41;;;;;;;;;;;14.00;99.90;;;;;;5068417;28;20383;-76
2022/11/16 10:51:08;;;;;;;;;;;14.20;99.90;;;;;;5059229;28;19962;-76
2022/11/16 10:53:38;;;;;;;;;;;14.60;99.90;;;;;;5052978;28;19920;-76
2022/11/16 10:56:12;;;;;;;;;;;14.70;99.90;;;;;;5059911;28;19978;-75
2022/11/16 10:58:48;;;;;;;;;;;14.60;99.90;;;;;;5057188;28;19917;-76
2022/11/16 11:01:25;;;;;;;;;;;14.60;99.90;;;;;;5049723;28;20650;-76
2022/11/16 11:03:51;;;;;;;;;;;14.40;99.90;;;;;;5051008;28;19913;-76
2022/11/16 11:06:17;;;;;;;;;;;14.30;99.90;;;;;;5051693;28;19936;-76
2022/11/16 11:08:42;;;;;;;;;;;14.10;99.90;;;;;;5053703;28;19908;-77
2022/11/16 11:14:10;;;;;;;;;;;14.60;99.90;;;;;;5054461;28;20003;-76
2022/11/16 11:16:36;;;;;;;;;;;14.20;99.90;;;;;;5051921;28;20364;-76
2022/11/16 11:19:35;;;;;;;;;;;14.30;99.90;;;;;;5052871;28;19964;-76
2022/11/16 11:22:00;;;;;;;;;;;14.40;99.90;;;;;;5031083;28;19919;-76
2022/11/16 11:24:27;;;;;;;;;;;14.70;99.90;;;;;;5050525;28;19912;-77
2022/11/16 11:26:54;;;;;;;;;;;14.90;99.90;;;;;;5050786;28;19919;-77
2022/11/16 11:29:19;;;;;;;;;;;15.20;99.90;;;;;;5049566;28;19926;-77
2022/11/16 11:31:47;;;;;;;;;;;15.60;99.90;;;;;;5047668;28;19962;-76
2022/11/16 11:34:16;;;;;;;;;;;15.80;99.90;;;;;;5050417;28;20618;-75
2022/11/16 11:36:47;;;;;;;;;;;15.90;99.90;;;;;;5052418;28;19919;-76
2022/11/16 11:39:12;;;;;;;;;;;15.80;99.90;;;;;;5051196;28;19924;-76
2022/11/16 11:41:39;;;;;;;;;;;15.70;99.90;;;;;;5053245;28;19912;-75
2022/11/16 11:44:13;;;;;;;;;;;15.40;99.90;;;;;;5051255;28;20000;-75
2022/11/16 11:46:50;;;;;;;;;;;15.30;99.90;;;;;;5048841;28;19919;-76
2022/11/16 11:49:19;;;;;;;;;;;15.20;99.90;;;;;;5054278;28;20347;-75
2022/11/16 11:51:46;;;;;;;;;;;15.00;99.90;;;;;;5053797;28;19952;-75
2022/11/16 11:54:16;;;;;;;;;;;14.80;99.90;;;;;;5055581;28;19984;-74
2022/11/16 11:56:42;;;;;;;;;;;14.50;99.90;;;;;;5059654;28;19913;-75
2022/11/16 11:59:10;;;;;;;;;;;14.30;99.90;;;;;;5053906;28;19934;-75
2022/11/16 12:01:38;;;;;;;;;;;14.20;99.90;;;;;;5050517;28;19913;-75
2022/11/16 12:04:07;;;;;;;;;;;14.10;99.90;;;;;;5050427;28;19932;-75
2022/11/16 12:06:38;;;;;;;;;;;14.20;99.90;;;;;;5085165;28;19963;-75
2022/11/16 12:09:09;;;;;;;;;;;14.30;99.90;;;;;;5051294;28;19964;-75
2022/11/16 12:11:35;;;;;;;;;;;14.40;99.90;;;;;;5049846;28;19920;-75
2022/11/16 12:14:16;;;;;;;;;;;14.60;99.90;;;;;;5051480;28;19917;-75
2022/11/16 12:16:44;;;;;;;;;;;14.40;99.90;;;;;;5068154;28;19950;-76
2022/11/16 12:19:25;;;;;;;;;;;14.60;99.90;;;;;;5064785;28;19931;-75
2022/11/16 12:21:51;;;;;;;;;;;14.50;99.90;;;;;;5070187;28;19916;-75
2022/11/16 12:24:22;;;;;;;;;;;14.70;99.90;;;;;;5071035;28;19920;-75
2022/11/16 12:26:53;;;;;;;;;;;15.00;99.90;;;;;;5070606;28;19913;-75
2022/11/16 12:29:36;;;;;;;;;;;15.20;99.90;;;;;;5066271;28;20393;-75
2022/11/16 12:32:07;;;;;;;;;;;15.20;99.90;;;;;;5066921;28;19923;-75
2022/11/16 12:34:47;;;;;;;;;;;15.40;99.90;;;;;;5070895;28;19937;-75
2022/11/16 12:37:17;;;;;;;;;;;15.50;99.90;;;;;;5070839;28;20553;-75
2022/11/16 12:39:44;;;;;;;;;;;15.60;99.90;;;;;;5065659;28;19956;-75
2022/11/16 12:42:22;;;;;;;;;;;15.50;99.90;;;;;;5055530;28;20007;-75
2022/11/16 12:45:06;;;;;;;;;;;15.20;99.90;;;;;;5050884;28;19943;-75
2022/11/16 12:48:07;;;;;;;;;;;15.40;99.90;;;;;;5058479;28;19916;-75
2022/11/16 12:50:41;;;;;;;;;;;15.20;99.90;;;;;;5022512;28;20011;-75
2022/11/16 12:53:25;;;;;;;;;;;15.20;99.90;;;;;;5057246;28;19919;-75
2022/11/16 12:55:51;;;;;;;;;;;15.10;99.90;;;;;;5068606;28;19912;-75
2022/11/16 12:58:26;;;;;;;;;;;14.70;99.90;;;;;;5070387;28;19917;-75
2022/11/16 13:01:12;;;;;;;;;;;14.70;99.90;;;;;;5070166;28;19916;-75
2022/11/16 13:03:50;;;;;;;;;;;14.60;99.90;;;;;;5070341;28;19912;-75
2022/11/16 13:06:17;;;;;;;;;;;14.70;99.90;;;;;;5069961;28;19929;-75
2022/11/16 13:09:02;;;;;;;;;;;15.10;99.90;;;;;;5062186;28;19936;-76
2022/11/16 13:11:39;;;;;;;;;;;15.30;99.90;;;;;;5063074;28;19974;-75
2022/11/16 13:14:06;;;;;;;;;;;15.50;99.90;;;;;;5058062;28;19921;-75
2022/11/16 13:16:33;;;;;;;;;;;15.60;99.90;;;;;;5052770;28;20597;-75
2022/11/16 13:18:59;;;;;;;;;;;15.30;99.90;;;;;;5059228;28;19916;-75
2022/11/16 13:21:25;;;;;;;;;;;15.50;99.90;;;;;;5068075;28;19923;-75
2022/11/16 13:24:03;;;;;;;;;;;15.70;99.90;;;;;;5053985;28;20888;-75
2022/11/16 13:26:34;;;;;;;;;;;15.60;99.90;;;;;;5053809;28;19935;-75
2022/11/16 13:29:19;;;;;;;;;;;15.40;99.90;;;;;;5066847;28;19927;-75
2022/11/16 13:31:59;;;;;;;;;;;15.20;99.90;;;;;;5069866;28;19934;-75
2022/11/16 13:34:27;;;;;;;;;;;15.20;99.90;;;;;;5057669;28;19920;-75
2022/11/16 13:36:53;;;;;;;;;;;15.70;99.90;;;;;;5055623;28;19917;-75
2022/11/16 13:39:38;;;;;;;;;;;15.90;99.90;;;;;;5069192;28;19909;-75
2022/11/16 13:42:11;;;;;;;;;;;15.50;99.90;;;;;;5068464;28;19917;-75
2022/11/16 13:44:37;;;;;;;;;;;15.10;99.90;;;;;;5069283;28;20510;-75
2022/11/16 13:47:05;;;;;;;;;;;14.90;99.90;;;;;;5068956;28;20026;-75
2022/11/16 13:49:35;;;;;;;;;;;15.10;99.90;;;;;;5069399;28;19920;-75
2022/11/16 13:52:03;;;;;;;;;;;15.30;99.90;;;;;;5061528;28;19917;-75
2022/11/16 13:54:39;;;;;;;;;;;15.20;99.90;;;;;;5068840;28;19935;-75
2022/11/16 13:57:24;;;;;;;;;;;15.00;99.90;;;;;;5068872;28;20029;-75
2022/11/16 13:59:54;;;;;;;;;;;14.80;99.90;;;;;;5089171;28;19914;-74
2022/11/16 14:02:29;;;;;;;;;;;14.70;99.90;;;;;;5068104;28;19912;-75
2022/11/16 14:04:56;;;;;;;;;;;15.00;99.90;;;;;;5063015;28;19916;-75
2022/11/16 14:07:41;;;;;;;;;;;15.10;99.90;;;;;;5068052;28;19925;-75
2022/11/16 14:10:08;;;;;;;;;;;14.80;99.90;;;;;;5063468;28;20431;-75
2022/11/16 14:12:36;;;;;;;;;;;14.70;99.90;;;;;;5068744;28;19925;-74
2022/11/16 14:15:22;;;;;;;;;;;14.60;99.90;;;;;;5068880;28;20940;-75
2022/11/16 14:17:54;;;;;;;;;;;14.50;99.90;;;;;;5060112;28;19921;-75
2022/11/16 14:20:43;;;;;;;;;;;14.40;99.90;;;;;;5066943;28;19963;-75
2022/11/16 14:23:11;;;;;;;;;;;14.30;99.90;;;;;;5060091;28;19912;-75
2022/11/16 14:25:47;;;;;;;;;;;14.30;99.90;;;;;;5068557;28;19912;-75
2022/11/16 14:28:22;;;;;;;;;;;14.30;99.90;;;;;;5054239;28;19928;-75
2022/11/16 14:31:12;;;;;;;;;;;14.30;99.90;;;;;;5053129;28;19916;-74
2022/11/16 14:33:38;;;;;;;;;;;14.20;99.90;;;;;;5054434;28;19909;-74
2022/11/16 14:36:05;;;;;;;;;;;14.10;99.90;;;;;;5055480;28;20003;-75
2022/11/16 14:38:35;;;;;;;;;;;14.20;99.90;;;;;;5049433;28;19923;-75
2022/11/16 14:41:03;;;;;;;;;;;14.20;99.90;;;;;;5087360;28;20495;-75
2022/11/16 14:43:32;;;;;;;;;;;14.10;99.90;;;;;;5051378;28;19939;-75
2022/11/16 14:46:00;;;;;;;;;;;14.10;99.90;;;;;;5055288;28;19939;-75
2022/11/16 14:48:26;;;;;;;;;;;14.00;99.90;;;;;;5052106;28;19917;-75
2022/11/16 14:51:04;;;;;;;;;;;13.80;99.90;;;;;;5064493;28;19927;-75
2022/11/16 14:53:31;;;;;;;;;;;13.70;99.90;;;;;;5060889;28;19913;-75
2022/11/16 14:56:05;;;;;;;;;;;13.60;99.90;;;;;;5056859;28;19967;-74
2022/11/16 14:58:31;;;;;;;;;;;13.60;99.90;;;;;;5063169;28;20364;-74
2022/11/16 15:01:02;;;;;;;;;;;13.70;99.90;;;;;;5064634;28;19966;-75
2022/11/16 15:03:30;;;;;;;;;;;13.90;99.90;;;;;;5064690;28;20415;-75
2022/11/16 15:05:57;;;;;;;;;;;14.10;99.90;;;;;;5058206;28;20042;-75
2022/11/16 15:08:25;;;;;;;;;;;14.20;99.90;;;;;;5059670;28;19927;-75
2022/11/16 15:10:51;;;;;;;;;;;14.20;99.90;;;;;;5061493;28;19922;-75
2022/11/16 15:13:21;;;;;;;;;;;14.20;99.90;;;;;;5053319;28;20019;-75